Back to Top

Language: 

My Weather Underground Personal Weather Station Historical Data with Graphs...

Delerius Weather Station Historical Data
Daily Summary for May 10, 2017 Units:  English    Metric   Both
« Previous Day
Next Day »
Daily Weekly Monthly Yearly Custom
  High: Low: Average:
Temperature: 66.4 °F 33.6 °F 53.3 °F
Dew Point: 44.7 °F 31.5 °F 40 °F
Humidity: 95 % 41 % 64 %
Wind Speed: 6.0 mph 0.0 mph 1.6 mph
Wind Gust: 12.0 mph - -
Wind:- - SSE
Pressure: 29.98 in 29.58 in -
Precipitation: 0.00 in    
Historical Graphs
 
 
Tabular Data for May 10, 2017
Time Temperature Dew Point Pressure Wind Wind Speed Wind Gust Humidity Rainfall Rate (Hourly) solar Conditions
00:04 41.7 °F 36.9 °F 29.98 in Calm   1.0 mph 83 % 0.00 in 0 W/m2
00:09 41.5 °F 36.8 °F 29.98 in Calm   2.0 mph 83 % 0.00 in 0 W/m2
00:14 41.4 °F 36.6 °F 29.98 in Calm   2.0 mph 83 % 0.00 in 0 W/m2
00:19 41.4 °F 36.9 °F 29.97 in Calm   2.0 mph 84 % 0.00 in 0 W/m2
00:24 41.4 °F 37.2 °F 29.97 in Calm   2.0 mph 85 % 0.00 in 0 W/m2
00:29 41.2 °F 37.0 °F 29.97 in Calm     85 % 0.00 in 0 W/m2
00:34 41.2 °F 37.0 °F 29.97 in Calm     85 % 0.00 in 0 W/m2
00:39 40.8 °F 36.7 °F 29.96 in Calm     85 % 0.00 in 0 W/m2
00:44 40.6 °F 36.5 °F 29.96 in Calm     85 % 0.00 in 0 W/m2
00:49 40.5 °F 36.3 °F 29.96 in Calm     85 % 0.00 in 0 W/m2
00:54 40.3 °F 36.4 °F 29.96 in Calm     86 % 0.00 in 0 W/m2
00:59 40.3 °F 36.4 °F 29.96 in Calm     86 % 0.00 in 0 W/m2
01:04 40.1 °F 36.2 °F 29.96 in Calm     86 % 0.00 in 0 W/m2
01:09 39.9 °F 36.1 °F 29.96 in Calm     86 % 0.00 in 0 W/m2
01:14 39.7 °F 35.9 °F 29.95 in Calm     86 % 0.00 in 0 W/m2
01:19 39.6 °F 36.0 °F 29.95 in Calm     87 % 0.00 in 0 W/m2
01:24 39.4 °F 35.8 °F 29.95 in Calm     87 % 0.00 in 0 W/m2
01:29 39.4 °F 35.8 °F 29.95 in Calm     87 % 0.00 in 0 W/m2
01:34 39.2 °F 35.7 °F 29.95 in Calm     87 % 0.00 in 0 W/m2
01:39 39.0 °F 35.5 °F 29.95 in Calm   1.0 mph 87 % 0.00 in 0 W/m2
01:42 38.8 °F 35.3 °F 29.94 in Calm   1.0 mph 87 % 0.00 in 0 W/m2
01:47 38.7 °F 35.1 °F 29.94 in Calm   1.0 mph 87 % 0.00 in 0 W/m2
01:52 38.5 °F 35.2 °F 29.94 in Calm     88 % 0.00 in 0 W/m2
01:57 38.5 °F 35.2 °F 29.94 in Calm     88 % 0.00 in 0 W/m2
02:02 38.1 °F 34.9 °F 29.94 in Calm     88 % 0.00 in 0 W/m2
02:07 38.1 °F 34.9 °F 29.93 in Calm     88 % 0.00 in 0 W/m2
02:13 37.9 °F 35.0 °F 29.93 in Calm     89 % 0.00 in 0 W/m2
02:18 37.8 °F 34.8 °F 29.93 in Calm     89 % 0.00 in 0 W/m2
02:23 37.8 °F 34.8 °F 29.92 in Calm     89 % 0.00 in 0 W/m2
02:28 37.6 °F 34.6 °F 29.92 in Calm     89 % 0.00 in 0 W/m2
02:33 37.6 °F 34.6 °F 29.92 in Calm     89 % 0.00 in 0 W/m2
02:38 37.4 °F 34.5 °F 29.92 in Calm     89 % 0.00 in 0 W/m2
02:43 37.2 °F 34.3 °F 29.92 in Calm     89 % 0.00 in 0 W/m2
02:48 37.0 °F 34.1 °F 29.92 in Calm     89 % 0.00 in 0 W/m2
02:53 36.9 °F 34.2 °F 29.92 in Calm     90 % 0.00 in 0 W/m2
02:58 36.9 °F 34.2 °F 29.91 in Calm   1.0 mph 90 % 0.00 in 0 W/m2
03:03 36.7 °F 34.0 °F 29.91 in Calm   1.0 mph 90 % 0.00 in 0 W/m2
03:08 36.7 °F 34.0 °F 29.91 in Calm     90 % 0.00 in 0 W/m2
03:13 36.5 °F 33.8 °F 29.91 in Calm     90 % 0.00 in 0 W/m2
03:18 36.3 °F 33.7 °F 29.90 in Calm     90 % 0.00 in 0 W/m2
03:23 36.3 °F 33.7 °F 29.90 in Calm     90 % 0.00 in 0 W/m2
03:28 36.1 °F 33.8 °F 29.90 in Calm     91 % 0.00 in 0 W/m2
03:33 36.1 °F 33.5 °F 29.90 in Calm     90 % 0.00 in 0 W/m2
03:38 36.0 °F 33.6 °F 29.90 in Calm     91 % 0.00 in 0 W/m2
03:43 35.8 °F 33.4 °F 29.90 in Calm     91 % 0.00 in 0 W/m2
03:48 35.6 °F 33.2 °F 29.90 in Calm     91 % 0.00 in 0 W/m2
03:53 35.4 °F 33.1 °F 29.89 in Calm     91 % 0.00 in 0 W/m2
03:58 35.2 °F 32.9 °F 29.89 in Calm     91 % 0.00 in 0 W/m2
04:03 35.2 °F 32.9 °F 29.89 in Calm     91 % 0.00 in 0 W/m2
04:08 35.1 °F 32.7 °F 29.89 in Calm     91 % 0.00 in 0 W/m2
04:13 34.9 °F 32.5 °F 29.89 in Calm     91 % 0.00 in 0 W/m2
04:18 34.9 °F 32.5 °F 29.89 in Calm     91 % 0.00 in 0 W/m2
04:19 34.9 °F 32.5 °F 29.89 in Calm     91 % 0.00 in 0 W/m2
04:24 34.7 °F 32.3 °F 29.89 in Calm     91 % 0.00 in 0 W/m2
04:29 34.5 °F 32.2 °F 29.88 in Calm     91 % 0.00 in 0 W/m2
04:34 34.5 °F 32.2 °F 29.88 in Calm     91 % 0.00 in 0 W/m2
04:39 34.3 °F 32.3 °F 29.88 in Calm     92 % 0.00 in 0 W/m2
04:44 34.3 °F 32.3 °F 29.88 in Calm     92 % 0.00 in 0 W/m2
04:49 34.3 °F 32.3 °F 29.88 in Calm     92 % 0.00 in 0 W/m2
04:54 34.3 °F 32.3 °F 29.87 in Calm     92 % 0.00 in 0 W/m2
05:00 34.3 °F 32.3 °F 29.87 in Calm     92 % 0.00 in 0 W/m2
05:05 34.2 °F 32.1 °F 29.87 in Calm     92 % 0.00 in 0 W/m2
05:10 34.2 °F 32.1 °F 29.87 in Calm     92 % 0.00 in 0 W/m2
05:15 34.0 °F 31.9 °F 29.86 in Calm     92 % 0.00 in 0 W/m2
05:20 33.8 °F 31.7 °F 29.86 in Calm     92 % 0.00 in 5 W/m2
05:25 33.6 °F 31.5 °F 29.86 in Calm     92 % 0.00 in 7 W/m2
05:30 33.6 °F 31.5 °F 29.86 in Calm     92 % 0.00 in 11 W/m2
05:35 33.6 °F 31.5 °F 29.86 in Calm     92 % 0.00 in 12 W/m2
05:40 33.6 °F 31.8 °F 29.86 in Calm     93 % 0.00 in 14 W/m2
05:45 33.8 °F 32.0 °F 29.85 in Calm     93 % 0.00 in 16 W/m2
05:50 34.0 °F 32.2 °F 29.85 in Calm     93 % 0.00 in 18 W/m2
05:55 34.0 °F 32.2 °F 29.85 in Calm     93 % 0.00 in 21 W/m2
06:00 34.2 °F 32.3 °F 29.85 in Calm     93 % 0.00 in 23 W/m2
06:05 34.2 °F 32.3 °F 29.85 in Calm     93 % 0.00 in 25 W/m2
06:10 34.3 °F 32.5 °F 29.85 in Calm     93 % 0.00 in 26 W/m2
06:15 34.5 °F 32.7 °F 29.84 in Calm     93 % 0.00 in 83 W/m2
06:20 35.2 °F 33.7 °F 29.84 in Calm     94 % 0.00 in 97 W/m2
06:25 36.0 °F 34.7 °F 29.84 in Calm     95 % 0.00 in 60 W/m2
06:30 36.7 °F 35.4 °F 29.84 in Calm     95 % 0.00 in 102 W/m2
06:35 37.2 °F 35.7 °F 29.84 in Calm     94 % 0.00 in 109 W/m2
06:40 38.1 °F 36.5 °F 29.84 in Calm     94 % 0.00 in 134 W/m2
06:45 39.0 °F 37.4 °F 29.84 in Calm     94 % 0.00 in 67 W/m2
06:50 40.3 °F 38.1 °F 29.84 in Calm     92 % 0.00 in 155 W/m2
06:55 41.7 °F 39.6 °F 29.84 in Calm     92 % 0.00 in 156 W/m2
07:00 42.8 °F 39.8 °F 29.84 in Calm     89 % 0.00 in 185 W/m2
07:06 43.9 °F 40.3 °F 29.83 in Calm     87 % 0.00 in 199 W/m2
07:11 45.1 °F 40.6 °F 29.83 in Calm     84 % 0.00 in 213 W/m2
07:16 46.0 °F 40.9 °F 29.83 in Calm     82 % 0.00 in 227 W/m2
07:21 46.8 °F 40.6 °F 29.83 in Calm     79 % 0.00 in 243 W/m2
07:26 47.3 °F 40.8 °F 29.83 in Calm     78 % 0.00 in 260 W/m2
07:31 48.6 °F 41.3 °F 29.83 in Calm     76 % 0.00 in 271 W/m2
07:36 49.1 °F 41.5 °F 29.83 in Calm   1.0 mph 75 % 0.00 in 287 W/m2
07:41 50.2 °F 41.9 °F 29.83 in Calm   1.0 mph 73 % 0.00 in 302 W/m2
07:46 50.7 °F 41.7 °F 29.82 in Calm   1.0 mph 71 % 0.00 in 315 W/m2
07:51 51.3 °F 41.8 °F 29.82 in Calm   2.0 mph 70 % 0.00 in 329 W/m2
07:56 52.0 °F 42.9 °F 29.82 in Calm   2.0 mph 71 % 0.00 in 345 W/m2
08:01 52.2 °F 43.0 °F 29.82 in Calm   2.0 mph 71 % 0.00 in 359 W/m2
08:06 51.8 °F 42.7 °F 29.82 in SSW 1.0 mph 2.0 mph 71 % 0.00 in 371 W/m2
08:11 51.8 °F 43.1 °F 29.82 in South 1.0 mph 2.0 mph 72 % 0.00 in 385 W/m2
08:16 51.8 °F 42.7 °F 29.82 in Calm   2.0 mph 71 % 0.00 in 403 W/m2
08:21 52.2 °F 43.0 °F 29.82 in Calm   1.0 mph 71 % 0.00 in 415 W/m2
08:26 53.1 °F 43.5 °F 29.82 in Calm   1.0 mph 70 % 0.00 in 431 W/m2
08:31 54.0 °F 43.6 °F 29.81 in Calm   1.0 mph 68 % 0.00 in 439 W/m2
08:36 54.9 °F 43.7 °F 29.81 in Calm   1.0 mph 66 % 0.00 in 457 W/m2
08:41 55.9 °F 43.9 °F 29.81 in Calm   2.0 mph 64 % 0.00 in 473 W/m2
08:46 56.7 °F 43.4 °F 29.81 in WNW 1.0 mph 5.0 mph 61 % 0.00 in 489 W/m2
08:51 57.4 °F 44.0 °F 29.80 in WNW 2.0 mph 7.0 mph 61 % 0.00 in 501 W/m2
08:56 57.9 °F 43.7 °F 29.80 in WNW 2.0 mph 7.0 mph 59 % 0.00 in 508 W/m2
09:01 58.6 °F 43.9 °F 29.80 in WNW 2.0 mph 7.0 mph 58 % 0.00 in 522 W/m2
09:06 59.0 °F 43.3 °F 29.80 in WNW 1.0 mph 6.0 mph 56 % 0.00 in 540 W/m2
09:11 59.2 °F 43.5 °F 29.80 in NW 1.0 mph 6.0 mph 56 % 0.00 in 547 W/m2
09:12 59.2 °F 43.5 °F 29.79 in NW 1.0 mph 6.0 mph 56 % 0.00 in 550 W/m2
09:17 59.2 °F 43.5 °F 29.79 in WNW 1.0 mph 6.0 mph 56 % 0.00 in 563 W/m2
09:22 59.2 °F 44.4 °F 29.79 in NW 2.0 mph 6.0 mph 58 % 0.00 in 568 W/m2
09:27 59.0 °F 44.2 °F 29.79 in NNE 1.0 mph 6.0 mph 58 % 0.00 in 577 W/m2
09:32 59.0 °F 44.7 °F 29.79 in East 1.0 mph 5.0 mph 59 % 0.00 in 594 W/m2
09:37 58.8 °F 44.1 °F 29.79 in ESE 1.0 mph 5.0 mph 58 % 0.00 in 608 W/m2
09:42 59.2 °F 44.4 °F 29.79 in East 1.0 mph 5.0 mph 58 % 0.00 in 619 W/m2
09:47 59.5 °F 44.7 °F 29.78 in East 1.0 mph 7.0 mph 58 % 0.00 in 629 W/m2
09:52 59.7 °F 44.0 °F 29.78 in ENE 1.0 mph 7.0 mph 56 % 0.00 in 640 W/m2
09:57 59.7 °F 44.0 °F 29.78 in East 1.0 mph 5.0 mph 56 % 0.00 in 656 W/m2
10:02 59.9 °F 43.7 °F 29.78 in ESE 1.0 mph 5.0 mph 55 % 0.00 in 652 W/m2
10:07 59.5 °F 43.8 °F 29.78 in SE 2.0 mph 5.0 mph 56 % 0.00 in 659 W/m2
10:12 59.5 °F 43.3 °F 29.78 in South 1.0 mph 5.0 mph 55 % 0.00 in 687 W/m2
10:17 59.5 °F 43.3 °F 29.78 in SSE 2.0 mph 6.0 mph 55 % 0.00 in 698 W/m2
10:22 60.1 °F 43.9 °F 29.77 in SSE 1.0 mph 6.0 mph 55 % 0.00 in 712 W/m2
10:27 60.4 °F 43.2 °F 29.77 in NNW 2.0 mph 8.0 mph 53 % 0.00 in 729 W/m2
10:32 60.8 °F 43.6 °F 29.77 in North 3.0 mph 8.0 mph 53 % 0.00 in 728 W/m2
10:37 61.0 °F 43.2 °F 29.77 in NNW 3.0 mph 7.0 mph 52 % 0.00 in 744 W/m2
10:42 61.2 °F 42.9 °F 29.77 in WNW 3.0 mph 7.0 mph 51 % 0.00 in 763 W/m2
10:47 60.8 °F 43.1 °F 29.77 in WSW 3.0 mph 7.0 mph 52 % 0.00 in 765 W/m2
10:52 60.3 °F 43.5 °F 29.77 in SW 3.0 mph 6.0 mph 54 % 0.00 in 773 W/m2
10:57 60.6 °F 43.4 °F 29.77 in ESE 2.0 mph 6.0 mph 53 % 0.00 in 798 W/m2
11:02 61.2 °F 44.4 °F 29.76 in ENE 3.0 mph 10.0 mph 54 % 0.00 in 835 W/m2
11:07 61.3 °F 44.1 °F 29.76 in North 4.0 mph 11.0 mph 53 % 0.00 in 199 W/m2
11:12 60.6 °F 43.4 °F 29.76 in North 5.0 mph 11.0 mph 53 % 0.00 in 294 W/m2
11:17 60.3 °F 42.6 °F 29.76 in NNE 4.0 mph 10.0 mph 52 % 0.00 in 881 W/m2
11:22 60.1 °F 43.4 °F 29.76 in NNE 4.0 mph 10.0 mph 54 % 0.00 in 197 W/m2
11:27 59.7 °F 43.0 °F 29.76 in NE 3.0 mph 7.0 mph 54 % 0.00 in 193 W/m2
11:32 59.7 °F 42.6 °F 29.75 in ENE 2.0 mph 6.0 mph 53 % 0.00 in 902 W/m2
11:37 59.7 °F 42.6 °F 29.75 in SSE 1.0 mph 4.0 mph 53 % 0.00 in 932 W/m2
11:42 60.6 °F 43.4 °F 29.75 in SSE 1.0 mph 5.0 mph 53 % 0.00 in 960 W/m2
11:47 61.5 °F 43.2 °F 29.75 in North 1.0 mph 7.0 mph 51 % 0.00 in 935 W/m2
11:53 62.1 °F 43.2 °F 29.75 in WNW 3.0 mph 8.0 mph 50 % 0.00 in 264 W/m2
11:58 62.2 °F 43.4 °F 29.75 in WNW 4.0 mph 8.0 mph 50 % 0.00 in 341 W/m2
12:03 62.1 °F 42.7 °F 29.74 in NNW 3.0 mph 7.0 mph 49 % 0.00 in 937 W/m2
12:08 62.2 °F 42.8 °F 29.74 in NW 3.0 mph 7.0 mph 49 % 0.00 in 207 W/m2
12:13 62.4 °F 42.5 °F 29.74 in NW 4.0 mph 8.0 mph 48 % 0.00 in 294 W/m2
12:18 62.4 °F 42.5 °F 29.74 in NW 2.0 mph 8.0 mph 48 % 0.00 in 287 W/m2
12:23 62.4 °F 42.5 °F 29.74 in SSW 1.0 mph 5.0 mph 48 % 0.00 in 327 W/m2
12:28 62.2 °F 42.8 °F 29.74 in South 1.0 mph 5.0 mph 49 % 0.00 in 1000 W/m2
12:33 62.8 °F 42.8 °F 29.74 in NE 1.0 mph 7.0 mph 48 % 0.00 in 308 W/m2
12:38 61.9 °F 42.5 °F 29.74 in NE 2.0 mph 7.0 mph 49 % 0.00 in 313 W/m2
12:43 61.5 °F 42.7 °F 29.74 in NE 2.0 mph 6.0 mph 50 % 0.00 in 211 W/m2
12:48 61.7 °F 42.9 °F 29.74 in NNW 2.0 mph 6.0 mph 50 % 0.00 in 258 W/m2
12:53 61.2 °F 42.4 °F 29.73 in North 2.0 mph 6.0 mph 50 % 0.00 in 309 W/m2
12:58 61.2 °F 43.4 °F 29.73 in East 1.0 mph 4.0 mph 52 % 0.00 in 954 W/m2
13:03 61.9 °F 44.1 °F 29.73 in ESE 1.0 mph 6.0 mph 52 % 0.00 in 923 W/m2
13:08 62.4 °F 43.5 °F 29.73 in East 3.0 mph 9.0 mph 50 % 0.00 in 954 W/m2
13:13 62.8 °F 44.4 °F 29.72 in East 4.0 mph 9.0 mph 51 % 0.00 in 900 W/m2
13:18 63.1 °F 43.7 °F 29.72 in East 3.0 mph 7.0 mph 49 % 0.00 in 919 W/m2
13:23 63.5 °F 44.5 °F 29.72 in East 1.0 mph 6.0 mph 50 % 0.00 in 916 W/m2
13:28 63.7 °F 43.6 °F 29.72 in East 2.0 mph 6.0 mph 48 % 0.00 in 619 W/m2
13:33 64.0 °F 43.4 °F 29.72 in NE 2.0 mph 6.0 mph 47 % 0.00 in 854 W/m2
13:38 64.2 °F 43.6 °F 29.72 in NE 2.0 mph 8.0 mph 47 % 0.00 in 534 W/m2
13:43 64.4 °F 43.7 °F 29.71 in SE 3.0 mph 10.0 mph 47 % 0.00 in 962 W/m2
13:48 64.6 °F 43.3 °F 29.71 in SSE 5.0 mph 10.0 mph 46 % 0.00 in 963 W/m2
13:53 64.9 °F 44.2 °F 29.71 in South 4.0 mph 8.0 mph 47 % 0.00 in 962 W/m2
13:58 65.1 °F 43.8 °F 29.71 in South 3.0 mph 7.0 mph 46 % 0.00 in 912 W/m2
14:03 64.9 °F 43.1 °F 29.71 in SSW 4.0 mph 7.0 mph 45 % 0.00 in 833 W/m2
14:08 65.1 °F 43.8 °F 29.70 in SW 3.0 mph 7.0 mph 46 % 0.00 in 851 W/m2
14:13 65.3 °F 43.4 °F 29.70 in SSW 3.0 mph 9.0 mph 45 % 0.00 in 875 W/m2
14:19 64.8 °F 43.5 °F 29.70 in South 5.0 mph 9.0 mph 46 % 0.00 in 863 W/m2
14:22 64.6 °F 42.7 °F 29.70 in South 5.0 mph 9.0 mph 45 % 0.00 in 877 W/m2
14:27 64.6 °F 43.9 °F 29.69 in ESE 4.0 mph 10.0 mph 47 % 0.00 in 874 W/m2
14:32 64.9 °F 43.7 °F 29.69 in North 4.0 mph 10.0 mph 46 % 0.00 in 877 W/m2
14:37 65.5 °F 43.6 °F 29.69 in WNW 4.0 mph 8.0 mph 45 % 0.00 in 898 W/m2
14:42 65.8 °F 44.5 °F 29.69 in West 3.0 mph 8.0 mph 46 % 0.00 in 914 W/m2
14:43 65.8 °F 43.9 °F 29.69 in West 3.0 mph 8.0 mph 45 % 0.00 in 909 W/m2
14:48 66.0 °F 44.6 °F 29.69 in NE 2.0 mph 8.0 mph 46 % 0.00 in 889 W/m2
14:53 66.4 °F 43.8 °F 29.69 in ENE 3.0 mph 10.0 mph 44 % 0.00 in 872 W/m2
14:58 66.2 °F 43.6 °F 29.68 in NE 5.0 mph 10.0 mph 44 % 0.00 in 768 W/m2
15:01 66.0 °F 43.5 °F 29.68 in NE 4.0 mph 8.0 mph 44 % 0.00 in 243 W/m2
15:06 65.8 °F 43.3 °F 29.68 in ENE 3.0 mph 9.0 mph 44 % 0.00 in 253 W/m2
15:11 65.1 °F 42.7 °F 29.68 in ENE 4.0 mph 9.0 mph 44 % 0.00 in 281 W/m2
15:16 64.6 °F 42.2 °F 29.68 in NE 3.0 mph 8.0 mph 44 % 0.00 in 255 W/m2
15:21 64.2 °F 42.4 °F 29.68 in NNE 2.0 mph 7.0 mph 45 % 0.00 in 346 W/m2
15:26 64.0 °F 42.3 °F 29.67 in NE 2.0 mph 7.0 mph 45 % 0.00 in 309 W/m2
15:31 64.2 °F 41.8 °F 29.67 in NE 3.0 mph 7.0 mph 44 % 0.00 in 824 W/m2
15:36 64.6 °F 42.7 °F 29.67 in NE 3.0 mph 7.0 mph 45 % 0.00 in 577 W/m2
15:41 64.9 °F 42.5 °F 29.66 in NE 2.0 mph 7.0 mph 44 % 0.00 in 276 W/m2
15:46 65.1 °F 42.1 °F 29.66 in ENE 1.0 mph 6.0 mph 43 % 0.00 in 329 W/m2
15:51 65.1 °F 42.7 °F 29.66 in East 3.0 mph 8.0 mph 44 % 0.00 in 401 W/m2
15:52 64.9 °F 42.5 °F 29.66 in East 3.0 mph 8.0 mph 44 % 0.00 in 401 W/m2
15:57 64.9 °F 42.5 °F 29.66 in East 5.0 mph 12.0 mph 44 % 0.00 in 318 W/m2
16:02 64.8 °F 42.3 °F 29.66 in ENE 4.0 mph 12.0 mph 44 % 0.00 in 246 W/m2
16:07 64.6 °F 42.2 °F 29.65 in NE 3.0 mph 7.0 mph 44 % 0.00 in 274 W/m2
16:12 64.6 °F 42.2 °F 29.65 in NE 2.0 mph 7.0 mph 44 % 0.00 in 327 W/m2
16:17 64.9 °F 42.5 °F 29.65 in South 3.0 mph 11.0 mph 44 % 0.00 in 345 W/m2
16:22 65.3 °F 42.8 °F 29.65 in South 4.0 mph 11.0 mph 44 % 0.00 in 318 W/m2
16:27 65.1 °F 42.1 °F 29.65 in East 3.0 mph 8.0 mph 43 % 0.00 in 329 W/m2
16:32 64.8 °F 42.3 °F 29.65 in ENE 3.0 mph 8.0 mph 44 % 0.00 in 348 W/m2
16:37 64.9 °F 43.1 °F 29.64 in ESE 3.0 mph 7.0 mph 45 % 0.00 in 346 W/m2
16:42 65.3 °F 42.2 °F 29.64 in SE 3.0 mph 7.0 mph 43 % 0.00 in 301 W/m2
16:47 65.3 °F 41.6 °F 29.64 in SE 4.0 mph 8.0 mph 42 % 0.00 in 295 W/m2
16:52 65.3 °F 42.2 °F 29.64 in SE 5.0 mph 8.0 mph 43 % 0.00 in 353 W/m2
16:57 65.5 °F 42.4 °F 29.63 in SE 4.0 mph 8.0 mph 43 % 0.00 in 645 W/m2
17:02 66.0 °F 42.9 °F 29.63 in SE 2.0 mph 9.0 mph 43 % 0.00 in 552 W/m2
17:07 66.0 °F 42.3 °F 29.63 in ESE 4.0 mph 10.0 mph 42 % 0.00 in 230 W/m2
17:12 65.8 °F 42.1 °F 29.63 in SE 4.0 mph 10.0 mph 42 % 0.00 in 515 W/m2
17:17 65.8 °F 42.7 °F 29.63 in SE 4.0 mph 8.0 mph 43 % 0.00 in 436 W/m2
17:22 66.0 °F 42.3 °F 29.62 in SE 3.0 mph 8.0 mph 42 % 0.00 in 520 W/m2
17:27 66.2 °F 42.4 °F 29.62 in ESE 3.0 mph 9.0 mph 42 % 0.00 in 468 W/m2
17:32 66.0 °F 42.3 °F 29.62 in SE 4.0 mph 9.0 mph 42 % 0.00 in 478 W/m2
17:37 66.0 °F 42.3 °F 29.62 in ESE 4.0 mph 7.0 mph 42 % 0.00 in 478 W/m2
17:42 66.2 °F 42.4 °F 29.62 in ESE 3.0 mph 7.0 mph 42 % 0.00 in 445 W/m2
17:48 66.2 °F 41.8 °F 29.62 in ESE 4.0 mph 10.0 mph 41 % 0.00 in 406 W/m2
17:53 66.0 °F 41.6 °F 29.61 in SE 5.0 mph 10.0 mph 41 % 0.00 in 388 W/m2
17:58 65.8 °F 41.5 °F 29.61 in SE 5.0 mph 9.0 mph 41 % 0.00 in 364 W/m2
18:03 65.8 °F 42.1 °F 29.61 in SE 4.0 mph 9.0 mph 42 % 0.00 in 329 W/m2
18:08 65.7 °F 41.9 °F 29.61 in SSE 4.0 mph 12.0 mph 42 % 0.00 in 309 W/m2
18:13 65.5 °F 41.1 °F 29.61 in SE 5.0 mph 12.0 mph 41 % 0.00 in 302 W/m2
18:18 65.5 °F 41.8 °F 29.61 in ESE 4.0 mph 8.0 mph 42 % 0.00 in 290 W/m2
18:23 65.3 °F 41.6 °F 29.60 in ESE 4.0 mph 10.0 mph 42 % 0.00 in 272 W/m2
18:28 64.9 °F 41.3 °F 29.60 in ESE 5.0 mph 10.0 mph 42 % 0.00 in 260 W/m2
18:33 64.8 °F 41.1 °F 29.60 in ESE 4.0 mph 9.0 mph 42 % 0.00 in 248 W/m2
18:38 64.6 °F 41.6 °F 29.60 in ESE 4.0 mph 8.0 mph 43 % 0.00 in 225 W/m2
18:43 64.6 °F 41.6 °F 29.60 in SE 5.0 mph 9.0 mph 43 % 0.00 in 213 W/m2
18:48 64.6 °F 41.6 °F 29.60 in SE 5.0 mph 10.0 mph 43 % 0.00 in 200 W/m2
18:50 64.6 °F 41.0 °F 29.60 in SE 6.0 mph 10.0 mph 42 % 0.00 in 195 W/m2
18:55 64.6 °F 41.6 °F 29.60 in SE 6.0 mph 10.0 mph 43 % 0.00 in 178 W/m2
19:00 64.4 °F 41.4 °F 29.60 in SE 5.0 mph 8.0 mph 43 % 0.00 in 172 W/m2
19:05 64.2 °F 41.2 °F 29.60 in SE 5.0 mph 9.0 mph 43 % 0.00 in 142 W/m2
19:10 64.0 °F 40.5 °F 29.60 in ESE 5.0 mph 10.0 mph 42 % 0.00 in 132 W/m2
19:12 63.9 °F 40.9 °F 29.60 in ESE 5.0 mph 10.0 mph 43 % 0.00 in 84 W/m2
19:17 63.7 °F 40.8 °F 29.60 in SE 5.0 mph 10.0 mph 43 % 0.00 in 113 W/m2
19:22 63.5 °F 41.2 °F 29.60 in SE 4.0 mph 8.0 mph 44 % 0.00 in 113 W/m2
19:27 63.3 °F 41.0 °F 29.60 in ESE 4.0 mph 8.0 mph 44 % 0.00 in 104 W/m2
19:32 63.3 °F 41.6 °F 29.60 in SE 3.0 mph 7.0 mph 45 % 0.00 in 93 W/m2
19:37 63.0 °F 41.3 °F 29.60 in SSE 2.0 mph 5.0 mph 45 % 0.00 in 65 W/m2
19:42 62.8 °F 40.5 °F 29.59 in SSE 3.0 mph 8.0 mph 44 % 0.00 in 63 W/m2
19:47 62.4 °F 40.2 °F 29.59 in SSE 4.0 mph 8.0 mph 44 % 0.00 in 46 W/m2
19:52 62.1 °F 39.9 °F 29.59 in SSE 4.0 mph 7.0 mph 44 % 0.00 in 53 W/m2
19:57 61.9 °F 40.3 °F 29.59 in SSE 4.0 mph 7.0 mph 45 % 0.00 in 37 W/m2
20:02 61.5 °F 40.0 °F 29.59 in SSE 3.0 mph 7.0 mph 45 % 0.00 in 33 W/m2
20:07 61.2 °F 40.2 °F 29.59 in South 3.0 mph 6.0 mph 46 % 0.00 in 30 W/m2
20:12 61.0 °F 40.6 °F 29.59 in SSE 2.0 mph 6.0 mph 47 % 0.00 in 25 W/m2
20:17 60.4 °F 40.6 °F 29.59 in SSE 3.0 mph 7.0 mph 48 % 0.00 in 21 W/m2
20:22 60.1 °F 40.8 °F 29.59 in SSE 4.0 mph 8.0 mph 49 % 0.00 in 19 W/m2
20:27 59.7 °F 41.0 °F 29.59 in SSE 3.0 mph 8.0 mph 50 % 0.00 in 16 W/m2
20:32 59.5 °F 41.4 °F 29.59 in SSE 1.0 mph 5.0 mph 51 % 0.00 in 12 W/m2
20:37 59.2 °F 41.1 °F 29.59 in SSE 2.0 mph 5.0 mph 51 % 0.00 in 11 W/m2
20:42 59.0 °F 41.4 °F 29.59 in SSE 2.0 mph 8.0 mph 52 % 0.00 in 7 W/m2
20:47 58.6 °F 41.1 °F 29.59 in SSE 2.0 mph 8.0 mph 52 % 0.00 in 5 W/m2
20:52 58.5 °F 41.4 °F 29.59 in SSE 1.0 mph 5.0 mph 53 % 0.00 in 5 W/m2
20:57 58.3 °F 41.2 °F 29.59 in South 2.0 mph 5.0 mph 53 % 0.00 in 0 W/m2
21:02 57.9 °F 40.9 °F 29.59 in South 2.0 mph 5.0 mph 53 % 0.00 in 0 W/m2
21:07 57.7 °F 41.2 °F 29.59 in South 1.0 mph 5.0 mph 54 % 0.00 in 0 W/m2
21:12 57.4 °F 41.8 °F 29.59 in SSW 1.0 mph 4.0 mph 56 % 0.00 in 0 W/m2
21:17 56.8 °F 41.3 °F 29.59 in Calm   4.0 mph 56 % 0.00 in 0 W/m2
21:23 56.5 °F 41.4 °F 29.59 in SSW 1.0 mph 4.0 mph 57 % 0.00 in 0 W/m2
21:27 56.1 °F 41.1 °F 29.59 in South 1.0 mph 4.0 mph 57 % 0.00 in 0 W/m2
21:32 55.9 °F 41.4 °F 29.59 in South 1.0 mph 5.0 mph 58 % 0.00 in 0 W/m2
21:38 55.8 °F 41.2 °F 29.59 in South 1.0 mph 5.0 mph 58 % 0.00 in 0 W/m2
21:43 55.6 °F 41.5 °F 29.59 in South 1.0 mph 4.0 mph 59 % 0.00 in 0 W/m2
21:48 55.2 °F 41.1 °F 29.59 in South 1.0 mph 4.0 mph 59 % 0.00 in 0 W/m2
21:53 54.9 °F 41.2 °F 29.59 in South 1.0 mph 5.0 mph 60 % 0.00 in 0 W/m2
21:58 54.7 °F 41.5 °F 29.59 in Calm   5.0 mph 61 % 0.00 in 0 W/m2
22:03 54.1 °F 41.4 °F 29.59 in Calm   2.0 mph 62 % 0.00 in 0 W/m2
22:08 53.8 °F 41.1 °F 29.59 in Calm   1.0 mph 62 % 0.00 in 0 W/m2
22:13 53.4 °F 41.1 °F 29.59 in Calm   1.0 mph 63 % 0.00 in 0 W/m2
22:18 53.1 °F 41.2 °F 29.59 in Calm   1.0 mph 64 % 0.00 in 0 W/m2
22:23 52.7 °F 41.7 °F 29.59 in Calm   1.0 mph 66 % 0.00 in 0 W/m2
22:28 52.3 °F 41.7 °F 29.59 in Calm     67 % 0.00 in 0 W/m2
22:33 52.0 °F 41.4 °F 29.59 in Calm     67 % 0.00 in 0 W/m2
22:38 51.4 °F 41.2 °F 29.59 in Calm   1.0 mph 68 % 0.00 in 0 W/m2
22:43 51.3 °F 41.1 °F 29.59 in South 1.0 mph 2.0 mph 68 % 0.00 in 0 W/m2
22:48 51.1 °F 41.3 °F 29.59 in South 1.0 mph 3.0 mph 69 % 0.00 in 0 W/m2
22:53 50.9 °F 41.1 °F 29.59 in South 1.0 mph 3.0 mph 69 % 0.00 in 0 W/m2
22:58 50.9 °F 41.1 °F 29.59 in SSE 2.0 mph 6.0 mph 69 % 0.00 in 0 W/m2
23:03 50.7 °F 40.9 °F 29.59 in SSE 1.0 mph 6.0 mph 69 % 0.00 in 0 W/m2
23:08 50.7 °F 40.9 °F 29.59 in Calm   1.0 mph 69 % 0.00 in 0 W/m2
23:13 50.5 °F 41.1 °F 29.59 in Calm   3.0 mph 70 % 0.00 in 0 W/m2
23:18 50.4 °F 40.9 °F 29.59 in Calm   3.0 mph 70 % 0.00 in 0 W/m2
23:23 50.2 °F 41.1 °F 29.59 in Calm   4.0 mph 71 % 0.00 in 0 W/m2
23:28 50.2 °F 41.1 °F 29.59 in Calm   4.0 mph 71 % 0.00 in 0 W/m2
23:33 49.8 °F 40.8 °F 29.58 in Calm   2.0 mph 71 % 0.00 in 0 W/m2
23:38 49.8 °F 41.2 °F 29.58 in Calm   2.0 mph 72 % 0.00 in 0 W/m2
23:44 49.6 °F 41.0 °F 29.59 in Calm   2.0 mph 72 % 0.00 in 0 W/m2
23:49 49.6 °F 41.0 °F 29.59 in Calm   2.0 mph 72 % 0.00 in 0 W/m2
23:54 49.8 °F 41.5 °F 29.59 in South 1.0 mph 6.0 mph 73 % 0.00 in 0 W/m2
23:59 50.2 °F 41.9 °F 29.58 in South 2.0 mph 7.0 mph 73 % 0.00 in 0 W/m2
Delerius-Weather
Compliments of Weather Underground - 2.25 mb

Data updates at regular intervals.